sensor_id;sensor_type;location;lat;lon;timestamp;pressure;altitude;pressure_sealevel;temperature;humidity
43804;BME280;29430;52.924;-2.388;2023-04-06T00:03:43;98903.59;;;9.21;100.00
43804;BME280;29430;52.924;-2.388;2023-04-06T00:08:35;98902.34;;;9.24;100.00
43804;BME280;29430;52.924;-2.388;2023-04-06T00:13:27;98905.41;;;9.27;100.00
43804;BME280;29430;52.924;-2.388;2023-04-06T00:18:19;98896.81;;;9.30;100.00
43804;BME280;29430;52.924;-2.388;2023-04-06T00:23:11;98889.28;;;9.32;100.00
43804;BME280;29430;52.924;-2.388;2023-04-06T00:28:02;98880.13;;;9.34;100.00
43804;BME280;29430;52.924;-2.388;2023-04-06T00:32:55;98880.72;;;9.36;100.00
43804;BME280;29430;52.924;-2.388;2023-04-06T00:37:47;98888.81;;;9.36;100.00
43804;BME280;29430;52.924;-2.388;2023-04-06T00:42:40;98874.47;;;9.35;100.00
43804;BME280;29430;52.924;-2.388;2023-04-06T00:47:33;98874.47;;;9.35;100.00
43804;BME280;29430;52.924;-2.388;2023-04-06T00:52:25;98874.59;;;9.40;100.00
43804;BME280;29430;52.924;-2.388;2023-04-06T00:57:17;98869.41;;;9.39;100.00
43804;BME280;29430;52.924;-2.388;2023-04-06T01:02:09;98854.03;;;9.39;100.00
43804;BME280;29430;52.924;-2.388;2023-04-06T01:07:01;98856.72;;;9.39;100.00
43804;BME280;29430;52.924;-2.388;2023-04-06T01:11:52;98858.59;;;9.39;100.00
43804;BME280;29430;52.924;-2.388;2023-04-06T01:16:44;98850.47;;;9.39;100.00
43804;BME280;29430;52.924;-2.388;2023-04-06T01:21:37;98844.00;;;9.40;100.00
43804;BME280;29430;52.924;-2.388;2023-04-06T01:26:29;98839.41;;;9.40;100.00
43804;BME280;29430;52.924;-2.388;2023-04-06T01:31:22;98832.50;;;9.44;100.00
43804;BME280;29430;52.924;-2.388;2023-04-06T01:36:14;98837.91;;;9.44;100.00
43804;BME280;29430;52.924;-2.388;2023-04-06T01:41:06;98819.78;;;9.45;100.00
43804;BME280;29430;52.924;-2.388;2023-04-06T01:45:57;98817.22;;;9.50;100.00
43804;BME280;29430;52.924;-2.388;2023-04-06T01:50:49;98811.34;;;9.53;100.00
43804;BME280;29430;52.924;-2.388;2023-04-06T01:55:40;98803.56;;;9.57;100.00
43804;BME280;29430;52.924;-2.388;2023-04-06T02:00:33;98812.03;;;9.60;100.00
43804;BME280;29430;52.924;-2.388;2023-04-06T02:05:25;98802.03;;;9.61;100.00
43804;BME280;29430;52.924;-2.388;2023-04-06T02:10:17;98789.91;;;9.63;100.00
43804;BME280;29430;52.924;-2.388;2023-04-06T02:15:09;98785.34;;;9.64;100.00
43804;BME280;29430;52.924;-2.388;2023-04-06T02:20:01;98785.34;;;9.64;100.00
43804;BME280;29430;52.924;-2.388;2023-04-06T02:24:53;98777.69;;;9.61;100.00
43804;BME280;29430;52.924;-2.388;2023-04-06T02:29:44;98775.78;;;9.61;100.00
43804;BME280;29430;52.924;-2.388;2023-04-06T02:34:36;98767.66;;;9.61;100.00
43804;BME280;29430;52.924;-2.388;2023-04-06T02:39:28;98773.66;;;9.63;100.00
43804;BME280;29430;52.924;-2.388;2023-04-06T02:44:20;98771.78;;;9.64;100.00
43804;BME280;29430;52.924;-2.388;2023-04-06T02:49:11;98765.06;;;9.66;100.00
43804;BME280;29430;52.924;-2.388;2023-04-06T02:54:03;98758.84;;;9.66;100.00
43804;BME280;29430;52.924;-2.388;2023-04-06T02:58:55;98748.25;;;9.64;100.00
43804;BME280;29430;52.924;-2.388;2023-04-06T03:03:46;98753.41;;;9.66;100.00
43804;BME280;29430;52.924;-2.388;2023-04-06T03:08:38;98755.66;;;9.69;100.00
43804;BME280;29430;52.924;-2.388;2023-04-06T03:13:30;98744.34;;;9.72;100.00
43804;BME280;29430;52.924;-2.388;2023-04-06T03:18:23;98746.00;;;9.73;100.00
43804;BME280;29430;52.924;-2.388;2023-04-06T03:23:14;98733.28;;;9.74;100.00
43804;BME280;29430;52.924;-2.388;2023-04-06T03:28:06;98727.06;;;9.73;100.00
43804;BME280;29430;52.924;-2.388;2023-04-06T03:32:58;98722.69;;;9.72;100.00
43804;BME280;29430;52.924;-2.388;2023-04-06T03:37:50;98718.09;;;9.73;100.00
43804;BME280;29430;52.924;-2.388;2023-04-06T03:42:41;98712.19;;;9.76;100.00
43804;BME280;29430;52.924;-2.388;2023-04-06T03:47:33;98709.00;;;9.79;100.00
43804;BME280;29430;52.924;-2.388;2023-04-06T03:52:25;98699.59;;;9.81;100.00
43804;BME280;29430;52.924;-2.388;2023-04-06T03:57:17;98696.09;;;9.81;100.00
43804;BME280;29430;52.924;-2.388;2023-04-06T04:02:09;98696.09;;;9.81;100.00
43804;BME280;29430;52.924;-2.388;2023-04-06T04:07:01;98697.72;;;9.82;100.00
43804;BME280;29430;52.924;-2.388;2023-04-06T04:11:53;98693.94;;;9.83;100.00
43804;BME280;29430;52.924;-2.388;2023-04-06T04:16:44;98699.38;;;9.83;100.00
43804;BME280;29430;52.924;-2.388;2023-04-06T04:21:43;98706.69;;;9.82;100.00
43804;BME280;29430;52.924;-2.388;2023-04-06T04:26:37;98690.66;;;9.81;100.00
43804;BME280;29430;52.924;-2.388;2023-04-06T04:31:28;98686.63;;;9.83;100.00
43804;BME280;29430;52.924;-2.388;2023-04-06T04:36:20;98698.31;;;9.84;100.00
43804;BME280;29430;52.924;-2.388;2023-04-06T04:41:12;98697.72;;;9.82;100.00
43804;BME280;29430;52.924;-2.388;2023-04-06T04:46:04;98702.31;;;9.81;100.00
43804;BME280;29430;52.924;-2.388;2023-04-06T04:50:56;98705.59;;;9.83;100.00
43804;BME280;29430;52.924;-2.388;2023-04-06T04:55:47;98700.41;;;9.82;100.00
43804;BME280;29430;52.924;-2.388;2023-04-06T05:00:39;98715.84;;;9.81;100.00
43804;BME280;29430;52.924;-2.388;2023-04-06T05:05:31;98713.72;;;9.83;100.00
43804;BME280;29430;52.924;-2.388;2023-04-06T05:10:23;98714.81;;;9.82;100.00
43804;BME280;29430;52.924;-2.388;2023-04-06T05:15:14;98706.06;;;9.80;100.00
43804;BME280;29430;52.924;-2.388;2023-04-06T05:20:06;98706.31;;;9.79;100.00
43804;BME280;29430;52.924;-2.388;2023-04-06T05:24:58;98712.19;;;9.76;100.00
43804;BME280;29430;52.924;-2.388;2023-04-06T05:29:51;98716.81;;;9.75;100.00
43804;BME280;29430;52.924;-2.388;2023-04-06T05:34:42;98728.34;;;9.71;100.00
43804;BME280;29430;52.924;-2.388;2023-04-06T05:39:34;98738.34;;;9.70;100.00
43804;BME280;29430;52.924;-2.388;2023-04-06T05:44:25;98722.81;;;9.65;100.00
43804;BME280;29430;52.924;-2.388;2023-04-06T05:49:17;98730.56;;;9.62;100.00
43804;BME280;29430;52.924;-2.388;2023-04-06T05:54:09;98740.00;;;9.59;100.00
43804;BME280;29430;52.924;-2.388;2023-04-06T05:59:01;98757.53;;;9.57;100.00
43804;BME280;29430;52.924;-2.388;2023-04-06T06:03:52;98766.38;;;9.52;100.00
43804;BME280;29430;52.924;-2.388;2023-04-06T06:08:44;98772.94;;;9.44;100.00
43804;BME280;29430;52.924;-2.388;2023-04-06T06:13:36;98782.81;;;9.39;100.00
43804;BME280;29430;52.924;-2.388;2023-04-06T06:18:27;98766.34;;;9.28;100.00
43804;BME280;29430;52.924;-2.388;2023-04-06T06:23:19;98773.72;;;9.21;100.00
43804;BME280;29430;52.924;-2.388;2023-04-06T06:28:11;98785.59;;;9.20;100.00
43804;BME280;29430;52.924;-2.388;2023-04-06T06:33:03;98792.31;;;9.18;100.00
43804;BME280;29430;52.924;-2.388;2023-04-06T06:37:54;98815.81;;;9.17;100.00
43804;BME280;29430;52.924;-2.388;2023-04-06T06:42:47;98821.47;;;9.16;100.00
43804;BME280;29430;52.924;-2.388;2023-04-06T06:47:38;98819.00;;;9.14;100.00
43804;BME280;29430;52.924;-2.388;2023-04-06T06:52:30;98821.47;;;9.16;100.00
43804;BME280;29430;52.924;-2.388;2023-04-06T06:57:22;98831.13;;;9.11;100.00
43804;BME280;29430;52.924;-2.388;2023-04-06T07:02:13;98818.75;;;9.04;100.00
43804;BME280;29430;52.924;-2.388;2023-04-06T07:07:07;98821.91;;;9.01;100.00
43804;BME280;29430;52.924;-2.388;2023-04-06T07:11:59;98833.31;;;9.03;100.00
43804;BME280;29430;52.924;-2.388;2023-04-06T07:16:53;98838.72;;;9.03;100.00
43804;BME280;29430;52.924;-2.388;2023-04-06T07:21:45;98842.84;;;9.05;100.00
43804;BME280;29430;52.924;-2.388;2023-04-06T07:26:37;98842.16;;;9.10;100.00
43804;BME280;29430;52.924;-2.388;2023-04-06T07:31:29;98843.34;;;9.14;100.00
43804;BME280;29430;52.924;-2.388;2023-04-06T07:36:20;98843.63;;;9.24;100.00
43804;BME280;29430;52.924;-2.388;2023-04-06T07:41:12;98847.91;;;9.44;100.00
43804;BME280;29430;52.924;-2.388;2023-04-06T07:46:04;98843.13;;;9.58;100.00
43804;BME280;29430;52.924;-2.388;2023-04-06T07:51:03;98833.84;;;9.65;100.00
43804;BME280;29430;52.924;-2.388;2023-04-06T07:55:55;98838.44;;;9.77;100.00
43804;BME280;29430;52.924;-2.388;2023-04-06T08:00:47;98833.13;;;9.94;100.00
43804;BME280;29430;52.924;-2.388;2023-04-06T08:05:39;98841.38;;;10.11;100.00
43804;BME280;29430;52.924;-2.388;2023-04-06T08:10:31;98844.66;;;10.13;100.00
43804;BME280;29430;52.924;-2.388;2023-04-06T08:15:22;98847.03;;;10.09;100.00
43804;BME280;29430;52.924;-2.388;2023-04-06T08:20:14;98855.88;;;10.04;100.00
43804;BME280;29430;52.924;-2.388;2023-04-06T08:25:06;98859.63;;;10.03;100.00
43804;BME280;29430;52.924;-2.388;2023-04-06T08:29:58;98861.28;;;10.04;100.00
43804;BME280;29430;52.924;-2.388;2023-04-06T08:34:53;98855.75;;;9.99;100.00
43804;BME280;29430;52.924;-2.388;2023-04-06T08:39:45;98872.13;;;10.04;100.00
43804;BME280;29430;52.924;-2.388;2023-04-06T08:44:37;98863.25;;;10.56;100.00
43804;BME280;29430;52.924;-2.388;2023-04-06T08:49:29;98860.69;;;10.90;100.00
43804;BME280;29430;52.924;-2.388;2023-04-06T08:54:21;98880.81;;;11.06;95.50
43804;BME280;29430;52.924;-2.388;2023-04-06T08:59:12;98883.56;;;10.95;93.78
43804;BME280;29430;52.924;-2.388;2023-04-06T09:04:07;98887.31;;;11.34;92.68
43804;BME280;29430;52.924;-2.388;2023-04-06T09:09:03;98889.88;;;12.04;93.13
43804;BME280;29430;52.924;-2.388;2023-04-06T09:13:56;98887.50;;;12.85;86.87
43804;BME280;29430;52.924;-2.388;2023-04-06T09:18:49;98886.16;;;13.10;78.00
43804;BME280;29430;52.924;-2.388;2023-04-06T09:23:41;98898.25;;;12.75;76.16
43804;BME280;29430;52.924;-2.388;2023-04-06T09:28:47;98901.09;;;12.46;81.51
43804;BME280;29430;52.924;-2.388;2023-04-06T09:33:44;98906.16;;;12.38;81.66
43804;BME280;29430;52.924;-2.388;2023-04-06T09:38:37;98910.66;;;12.88;80.47
43804;BME280;29430;52.924;-2.388;2023-04-06T09:43:30;98904.19;;;12.94;74.35
43804;BME280;29430;52.924;-2.388;2023-04-06T09:48:22;98905.34;;;12.76;76.17
43804;BME280;29430;52.924;-2.388;2023-04-06T09:53:17;98908.06;;;13.42;79.40
43804;BME280;29430;52.924;-2.388;2023-04-06T09:58:13;98922.28;;;13.77;72.75
43804;BME280;29430;52.924;-2.388;2023-04-06T10:03:22;98903.34;;;13.65;71.08
43804;BME280;29430;52.924;-2.388;2023-04-06T10:08:18;98924.38;;;13.97;66.31
43804;BME280;29430;52.924;-2.388;2023-04-06T10:13:12;98924.78;;;13.84;67.98
43804;BME280;29430;52.924;-2.388;2023-04-06T10:18:04;98942.84;;;14.60;69.36
43804;BME280;29430;52.924;-2.388;2023-04-06T10:23:05;98944.53;;;15.19;68.02
43804;BME280;29430;52.924;-2.388;2023-04-06T10:28:02;98942.38;;;15.26;62.00
43804;BME280;29430;52.924;-2.388;2023-04-06T10:32:56;98945.19;;;15.67;64.26
43804;BME280;29430;52.924;-2.388;2023-04-06T10:38:02;98946.09;;;15.99;60.60
43804;BME280;29430;52.924;-2.388;2023-04-06T10:42:54;98949.06;;;15.82;58.23
43804;BME280;29430;52.924;-2.388;2023-04-06T10:47:46;98955.31;;;15.62;58.89
43804;BME280;29430;52.924;-2.388;2023-04-06T10:52:38;98962.56;;;15.25;59.26
43804;BME280;29430;52.924;-2.388;2023-04-06T10:57:30;98952.31;;;14.95;59.96
43804;BME280;29430;52.924;-2.388;2023-04-06T11:02:25;98956.94;;;14.46;60.98
43804;BME280;29430;52.924;-2.388;2023-04-06T11:07:23;98965.94;;;14.14;61.62
43804;BME280;29430;52.924;-2.388;2023-04-06T11:12:26;98968.41;;;14.16;64.84
43804;BME280;29430;52.924;-2.388;2023-04-06T11:17:25;98983.09;;;14.42;62.97
43804;BME280;29430;52.924;-2.388;2023-04-06T11:22:17;98981.75;;;14.12;62.67
43804;BME280;29430;52.924;-2.388;2023-04-06T11:27:09;98989.16;;;14.17;64.43
43804;BME280;29430;52.924;-2.388;2023-04-06T11:32:03;98980.63;;;14.08;63.63
43804;BME280;29430;52.924;-2.388;2023-04-06T11:36:57;99003.66;;;13.90;63.71
43804;BME280;29430;52.924;-2.388;2023-04-06T11:41:50;99001.78;;;13.69;63.36
43804;BME280;29430;52.924;-2.388;2023-04-06T11:46:51;99001.19;;;13.89;64.94
43804;BME280;29430;52.924;-2.388;2023-04-06T11:51:43;98984.97;;;14.37;62.00
43804;BME280;29430;52.924;-2.388;2023-04-06T11:56:35;98997.44;;;14.27;59.39
43804;BME280;29430;52.924;-2.388;2023-04-06T12:01:27;98989.00;;;14.61;60.65
43804;BME280;29430;52.924;-2.388;2023-04-06T12:06:18;98999.09;;;15.03;60.65
43804;BME280;29430;52.924;-2.388;2023-04-06T12:11:11;98995.69;;;15.39;60.77
43804;BME280;29430;52.924;-2.388;2023-04-06T12:16:03;98996.13;;;15.84;56.60
43804;BME280;29430;52.924;-2.388;2023-04-06T12:20:55;99005.38;;;15.72;53.70
43804;BME280;29430;52.924;-2.388;2023-04-06T12:25:46;98996.59;;;15.65;55.44
43804;BME280;29430;52.924;-2.388;2023-04-06T12:30:38;99003.69;;;15.56;55.93
43804;BME280;29430;52.924;-2.388;2023-04-06T12:35:36;99009.69;;;15.53;56.44
43804;BME280;29430;52.924;-2.388;2023-04-06T12:40:28;99026.47;;;15.19;54.93
43804;BME280;29430;52.924;-2.388;2023-04-06T12:45:20;99030.97;;;14.93;57.01
43804;BME280;29430;52.924;-2.388;2023-04-06T12:50:12;99032.78;;;14.77;58.70
43804;BME280;29430;52.924;-2.388;2023-04-06T12:55:04;99040.00;;;14.61;57.77
43804;BME280;29430;52.924;-2.388;2023-04-06T12:59:57;99037.34;;;14.39;58.84
43804;BME280;29430;52.924;-2.388;2023-04-06T13:04:49;99048.09;;;14.18;57.81
43804;BME280;29430;52.924;-2.388;2023-04-06T13:09:41;99059.00;;;14.18;59.87
43804;BME280;29430;52.924;-2.388;2023-04-06T13:14:33;99048.75;;;14.30;58.90
43804;BME280;29430;52.924;-2.388;2023-04-06T13:19:24;99030.25;;;14.38;59.03
43804;BME280;29430;52.924;-2.388;2023-04-06T13:24:16;99032.31;;;14.58;60.47
43804;BME280;29430;52.924;-2.388;2023-04-06T13:29:08;99041.50;;;14.74;59.13
43804;BME280;29430;52.924;-2.388;2023-04-06T13:34:00;99050.06;;;14.88;58.76
43804;BME280;29430;52.924;-2.388;2023-04-06T13:38:52;99058.25;;;14.88;56.58
43804;BME280;29430;52.924;-2.388;2023-04-06T13:43:43;99063.78;;;14.65;55.54
43804;BME280;29430;52.924;-2.388;2023-04-06T13:48:35;99079.06;;;14.34;55.87
43804;BME280;29430;52.924;-2.388;2023-04-06T13:53:27;99077.00;;;13.92;57.06
43804;BME280;29430;52.924;-2.388;2023-04-06T13:58:19;99069.84;;;13.86;59.74
43804;BME280;29430;52.924;-2.388;2023-04-06T14:03:10;99077.16;;;14.07;60.47
43804;BME280;29430;52.924;-2.388;2023-04-06T14:08:02;99079.16;;;14.17;61.70
43804;BME280;29430;52.924;-2.388;2023-04-06T14:12:54;99070.34;;;14.37;58.83
43804;BME280;29430;52.924;-2.388;2023-04-06T14:17:45;99086.94;;;14.30;57.98
43804;BME280;29430;52.924;-2.388;2023-04-06T14:22:37;99077.97;;;14.08;54.54
43804;BME280;29430;52.924;-2.388;2023-04-06T14:27:29;99089.44;;;13.83;55.86
43804;BME280;29430;52.924;-2.388;2023-04-06T14:32:21;99095.06;;;13.54;56.19
43804;BME280;29430;52.924;-2.388;2023-04-06T14:37:12;99104.94;;;13.38;57.64
43804;BME280;29430;52.924;-2.388;2023-04-06T14:42:04;99109.22;;;13.17;58.18
43804;BME280;29430;52.924;-2.388;2023-04-06T14:46:56;99107.75;;;13.09;59.64
43804;BME280;29430;52.924;-2.388;2023-04-06T14:51:47;99109.56;;;13.03;57.72
43804;BME280;29430;52.924;-2.388;2023-04-06T14:56:39;99117.59;;;12.93;57.74
43804;BME280;29430;52.924;-2.388;2023-04-06T15:01:34;99126.31;;;12.78;57.81
43804;BME280;29430;52.924;-2.388;2023-04-06T15:06:27;99122.53;;;12.62;58.08
43804;BME280;29430;52.924;-2.388;2023-04-06T15:11:19;99126.28;;;12.44;58.18
43804;BME280;29430;52.924;-2.388;2023-04-06T15:16:11;99135.47;;;12.26;59.00
43804;BME280;29430;52.924;-2.388;2023-04-06T15:21:03;99142.03;;;12.13;59.52
43804;BME280;29430;52.924;-2.388;2023-04-06T15:25:55;99143.97;;;12.01;61.29
43804;BME280;29430;52.924;-2.388;2023-04-06T15:30:47;99140.91;;;11.86;60.87
43804;BME280;29430;52.924;-2.388;2023-04-06T15:35:38;99150.03;;;11.68;61.69
43804;BME280;29430;52.924;-2.388;2023-04-06T15:40:33;99165.75;;;11.54;61.56
43804;BME280;29430;52.924;-2.388;2023-04-06T15:45:25;99163.31;;;11.40;61.45
43804;BME280;29430;52.924;-2.388;2023-04-06T15:50:17;99163.66;;;11.32;62.51
43804;BME280;29430;52.924;-2.388;2023-04-06T15:55:10;99173.81;;;11.25;63.90
43804;BME280;29430;52.924;-2.388;2023-04-06T16:00:02;99168.63;;;11.23;63.65
43804;BME280;29430;52.924;-2.388;2023-04-06T16:04:56;99167.31;;;11.14;63.28
43804;BME280;29430;52.924;-2.388;2023-04-06T16:09:51;99178.53;;;11.18;63.06
43804;BME280;29430;52.924;-2.388;2023-04-06T16:14:44;99178.88;;;11.33;62.02
43804;BME280;29430;52.924;-2.388;2023-04-06T16:19:36;99187.03;;;11.33;61.68
43804;BME280;29430;52.924;-2.388;2023-04-06T16:24:28;99196.81;;;11.22;60.71
43804;BME280;29430;52.924;-2.388;2023-04-06T16:29:19;99195.97;;;11.10;60.63
43804;BME280;29430;52.924;-2.388;2023-04-06T16:34:12;99197.03;;;10.97;59.97
43804;BME280;29430;52.924;-2.388;2023-04-06T16:39:04;99199.72;;;10.85;60.85
43804;BME280;29430;52.924;-2.388;2023-04-06T16:43:56;99207.75;;;10.92;61.81
43804;BME280;29430;52.924;-2.388;2023-04-06T16:48:48;99211.53;;;11.03;61.64
43804;BME280;29430;52.924;-2.388;2023-04-06T16:53:40;99225.09;;;11.03;60.40
43804;BME280;29430;52.924;-2.388;2023-04-06T16:58:34;99244.44;;;10.95;61.47
43804;BME280;29430;52.924;-2.388;2023-04-06T17:03:31;99246.19;;;10.89;61.36
43804;BME280;29430;52.924;-2.388;2023-04-06T17:08:23;99247.50;;;10.86;62.17
43804;BME280;29430;52.924;-2.388;2023-04-06T17:13:15;99250.91;;;10.82;61.43
43804;BME280;29430;52.924;-2.388;2023-04-06T17:18:07;99255.34;;;10.76;62.38
43804;BME280;29430;52.924;-2.388;2023-04-06T17:22:59;99263.38;;;10.71;63.48
43804;BME280;29430;52.924;-2.388;2023-04-06T17:27:51;99274.69;;;10.68;64.01
43804;BME280;29430;52.924;-2.388;2023-04-06T17:32:43;99275.53;;;10.50;64.01
43804;BME280;29430;52.924;-2.388;2023-04-06T17:37:35;99287.28;;;10.44;65.23
43804;BME280;29430;52.924;-2.388;2023-04-06T17:42:28;99287.28;;;10.44;65.75
43804;BME280;29430;52.924;-2.388;2023-04-06T17:47:19;99302.28;;;10.46;66.24
43804;BME280;29430;52.924;-2.388;2023-04-06T17:52:11;99304.84;;;10.41;65.37
43804;BME280;29430;52.924;-2.388;2023-04-06T17:57:03;99312.88;;;10.29;66.25
43804;BME280;29430;52.924;-2.388;2023-04-06T18:01:56;99318.44;;;10.16;65.93
43804;BME280;29430;52.924;-2.388;2023-04-06T18:06:47;99323.13;;;10.09;66.20
43804;BME280;29430;52.924;-2.388;2023-04-06T18:11:39;99318.81;;;10.01;66.30
43804;BME280;29430;52.924;-2.388;2023-04-06T18:16:31;99323.69;;;9.92;66.61
43804;BME280;29430;52.924;-2.388;2023-04-06T18:21:29;99331.69;;;9.80;67.35
43804;BME280;29430;52.924;-2.388;2023-04-06T18:26:24;99326.78;;;9.71;68.02
43804;BME280;29430;52.924;-2.388;2023-04-06T18:31:16;99333.09;;;9.64;69.07
43804;BME280;29430;52.924;-2.388;2023-04-06T18:36:08;99339.00;;;9.55;69.48
43804;BME280;29430;52.924;-2.388;2023-04-06T18:41:01;99349.28;;;9.46;69.54
43804;BME280;29430;52.924;-2.388;2023-04-06T18:45:53;99336.69;;;9.33;70.68
43804;BME280;29430;52.924;-2.388;2023-04-06T18:50:56;99347.53;;;9.26;71.24
43804;BME280;29430;52.924;-2.388;2023-04-06T18:55:52;99356.53;;;9.20;71.28
43804;BME280;29430;52.924;-2.388;2023-04-06T19:00:43;99365.94;;;9.11;71.65
43804;BME280;29430;52.924;-2.388;2023-04-06T19:05:35;99361.22;;;9.00;72.73
43804;BME280;29430;52.924;-2.388;2023-04-06T19:10:27;99366.91;;;8.91;72.85
43804;BME280;29430;52.924;-2.388;2023-04-06T19:15:19;99363.81;;;8.81;73.38
43804;BME280;29430;52.924;-2.388;2023-04-06T19:20:11;99378.19;;;8.75;73.94
43804;BME280;29430;52.924;-2.388;2023-04-06T19:25:04;99378.22;;;8.62;74.48
43804;BME280;29430;52.924;-2.388;2023-04-06T19:29:55;99387.81;;;8.51;75.32
43804;BME280;29430;52.924;-2.388;2023-04-06T19:34:47;99389.91;;;8.42;75.90
43804;BME280;29430;52.924;-2.388;2023-04-06T19:39:39;99381.00;;;8.28;76.11
43804;BME280;29430;52.924;-2.388;2023-04-06T19:44:34;99398.88;;;8.22;77.19
43804;BME280;29430;52.924;-2.388;2023-04-06T19:49:26;99406.16;;;8.15;77.23
43804;BME280;29430;52.924;-2.388;2023-04-06T19:54:18;99408.88;;;8.02;77.61
43804;BME280;29430;52.924;-2.388;2023-04-06T19:59:11;99426.34;;;7.93;78.44
43804;BME280;29430;52.924;-2.388;2023-04-06T20:04:03;99421.34;;;7.89;79.26
43804;BME280;29430;52.924;-2.388;2023-04-06T20:08:55;99439.00;;;7.85;79.15
43804;BME280;29430;52.924;-2.388;2023-04-06T20:13:46;99435.47;;;7.78;79.20
43804;BME280;29430;52.924;-2.388;2023-04-06T20:18:38;99452.91;;;7.76;79.96
43804;BME280;29430;52.924;-2.388;2023-04-06T20:23:29;99453.31;;;7.66;79.82
43804;BME280;29430;52.924;-2.388;2023-04-06T20:28:21;99456.81;;;7.60;80.10
43804;BME280;29430;52.924;-2.388;2023-04-06T20:33:14;99461.81;;;7.56;80.46
43804;BME280;29430;52.924;-2.388;2023-04-06T20:38:06;99465.53;;;7.48;81.07
43804;BME280;29430;52.924;-2.388;2023-04-06T20:42:57;99473.41;;;7.43;81.13
43804;BME280;29430;52.924;-2.388;2023-04-06T20:47:52;99477.75;;;7.38;81.81
43804;BME280;29430;52.924;-2.388;2023-04-06T20:52:44;99485.81;;;7.31;82.35
43804;BME280;29430;52.924;-2.388;2023-04-06T20:57:36;99482.88;;;7.26;82.34
43804;BME280;29430;52.924;-2.388;2023-04-06T21:02:27;99484.75;;;7.19;83.33
43804;BME280;29430;52.924;-2.388;2023-04-06T21:07:19;99488.88;;;7.14;83.23
43804;BME280;29430;52.924;-2.388;2023-04-06T21:12:11;99484.88;;;7.10;83.49
43804;BME280;29430;52.924;-2.388;2023-04-06T21:17:03;99480.50;;;7.03;84.11
43804;BME280;29430;52.924;-2.388;2023-04-06T21:21:54;99492.53;;;7.00;84.11
43804;BME280;29430;52.924;-2.388;2023-04-06T21:26:46;99484.19;;;6.95;84.70
43804;BME280;29430;52.924;-2.388;2023-04-06T21:31:39;99483.16;;;6.89;84.67
43804;BME280;29430;52.924;-2.388;2023-04-06T21:36:32;99480.41;;;6.82;84.84
43804;BME280;29430;52.924;-2.388;2023-04-06T21:41:27;99487.25;;;6.78;84.99
43804;BME280;29430;52.924;-2.388;2023-04-06T21:46:19;99481.38;;;6.68;84.61
43804;BME280;29430;52.924;-2.388;2023-04-06T21:51:20;99484.03;;;6.61;84.93
43804;BME280;29430;52.924;-2.388;2023-04-06T21:56:19;99487.72;;;6.54;85.82
43804;BME280;29430;52.924;-2.388;2023-04-06T22:01:11;99495.13;;;6.52;86.07
43804;BME280;29430;52.924;-2.388;2023-04-06T22:06:04;99503.22;;;6.52;85.63
43804;BME280;29430;52.924;-2.388;2023-04-06T22:10:55;99506.97;;;6.51;85.55
43804;BME280;29430;52.924;-2.388;2023-04-06T22:15:47;99509.00;;;6.49;85.16
43804;BME280;29430;52.924;-2.388;2023-04-06T22:20:39;99524.34;;;6.48;85.31
43804;BME280;29430;52.924;-2.388;2023-04-06T22:25:30;99532.63;;;6.47;85.59
43804;BME280;29430;52.924;-2.388;2023-04-06T22:30:22;99536.28;;;6.39;84.71
43804;BME280;29430;52.924;-2.388;2023-04-06T22:35:14;99539.97;;;6.31;85.09
43804;BME280;29430;52.924;-2.388;2023-04-06T22:40:06;99527.47;;;6.23;85.10
43804;BME280;29430;52.924;-2.388;2023-04-06T22:44:58;99530.31;;;6.15;85.60
43804;BME280;29430;52.924;-2.388;2023-04-06T22:49:49;99524.41;;;6.05;86.11
43804;BME280;29430;52.924;-2.388;2023-04-06T22:54:41;99529.03;;;5.96;86.38
43804;BME280;29430;52.924;-2.388;2023-04-06T22:59:33;99537.69;;;5.91;87.12
43804;BME280;29430;52.924;-2.388;2023-04-06T23:04:25;99546.81;;;5.90;88.44
43804;BME280;29430;52.924;-2.388;2023-04-06T23:09:16;99539.50;;;5.84;88.40
43804;BME280;29430;52.924;-2.388;2023-04-06T23:14:08;99546.47;;;5.79;88.65
43804;BME280;29430;52.924;-2.388;2023-04-06T23:19:00;99545.19;;;5.74;88.40
43804;BME280;29430;52.924;-2.388;2023-04-06T23:23:52;99562.44;;;5.80;89.17
43804;BME280;29430;52.924;-2.388;2023-04-06T23:28:43;99576.91;;;5.79;87.95
43804;BME280;29430;52.924;-2.388;2023-04-06T23:33:35;99584.09;;;5.72;88.23
43804;BME280;29430;52.924;-2.388;2023-04-06T23:38:27;99585.66;;;5.66;88.34
43804;BME280;29430;52.924;-2.388;2023-04-06T23:43:18;99588.09;;;5.61;88.36
43804;BME280;29430;52.924;-2.388;2023-04-06T23:48:10;99591.16;;;5.58;87.55
43804;BME280;29430;52.924;-2.388;2023-04-06T23:53:02;99602.31;;;5.55;88.63
43804;BME280;29430;52.924;-2.388;2023-04-06T23:57:54;99602.50;;;5.53;88.16
